Athens, Michigan
Current Conditions -  °F | °C
As of 5:34 AM on Saturday 25 Oct 2014 (Local Time) from KOEB Reporting Station
Overcast Overcast  
Wind Chill: 13°   Ceiling: 4300
Heat Index: 13°   Visibility: 7mi
Dew Point: 11°   Wind: 7mph
Humidity: 91%   Direction: 230°SW
Pressure: 29.88"   Gusts: NA
Location:  42.09°N, 85.23°W
Report Text: KOEB 250934Z AUTO 23006KT 7SM BKN043 OVC048 13/11 A2988 RMK AO2 T01250110
Loading
Personal Weather Stations






























Interactive Weather Map
Tropical Storm Tracking
New forecast layout! Learn more

10-Day Weather Forecast

Advertisements
Track Severe Weather on mobile